createdAt,value
2018-12-25T00:01:22.048Z,5.80
2018-12-25T00:03:51.503Z,5.67
2018-12-25T00:06:20.704Z,5.13
2018-12-25T00:08:49.896Z,4.63
2018-12-25T00:11:19.080Z,4.60
2018-12-25T00:13:48.253Z,4.53
2018-12-25T00:16:17.441Z,5.30
2018-12-25T00:18:46.632Z,5.30
2018-12-25T00:21:15.837Z,5.40
2018-12-25T00:23:45.018Z,6.13
2018-12-25T00:26:14.217Z,5.53
2018-12-25T00:28:43.414Z,4.90
2018-12-25T00:31:12.898Z,5.07
2018-12-25T00:33:42.102Z,6.07
2018-12-25T00:36:11.282Z,4.87
2018-12-25T00:38:40.477Z,4.93
2018-12-25T00:41:09.636Z,5.30
2018-12-25T00:43:38.826Z,5.03
2018-12-25T00:46:07.999Z,5.13
2018-12-25T00:48:37.197Z,4.90
2018-12-25T00:51:06.365Z,5.30
2018-12-25T00:53:35.553Z,5.20
2018-12-25T00:56:04.762Z,4.50
2018-12-25T00:58:33.925Z,5.10
2018-12-25T01:01:03.113Z,5.20
2018-12-25T01:03:32.338Z,5.67
2018-12-25T01:06:01.522Z,5.17
2018-12-25T01:08:30.699Z,5.30
2018-12-25T01:10:59.865Z,4.90
2018-12-25T01:13:29.081Z,4.60
2018-12-25T01:15:58.255Z,4.43
2018-12-25T01:18:27.431Z,4.30
2018-12-25T01:20:56.607Z,4.60
2018-12-25T01:23:26.086Z,4.27
2018-12-25T01:25:55.250Z,5.03
2018-12-25T01:28:24.500Z,4.03
2018-12-25T01:30:53.674Z,4.63
2018-12-25T01:33:24.163Z,4.27
2018-12-25T01:35:53.333Z,5.53
2018-12-25T01:38:22.817Z,4.80
2018-12-25T01:40:51.997Z,4.87
2018-12-25T01:43:21.177Z,5.70
2018-12-25T01:45:50.621Z,6.23
2018-12-25T01:48:19.836Z,6.30
2018-12-25T01:50:48.992Z,6.40
2018-12-25T01:53:18.197Z,6.80
2018-12-25T01:55:47.388Z,7.27
2018-12-25T01:58:16.816Z,7.50
2018-12-25T02:00:45.989Z,6.87
2018-12-25T02:03:15.525Z,7.07
2018-12-25T02:05:44.695Z,5.80
2018-12-25T02:08:13.887Z,6.40
2018-12-25T02:10:43.070Z,6.57
2018-12-25T02:13:13.225Z,5.60
2018-12-25T02:15:42.423Z,5.40
2018-12-25T02:18:11.581Z,6.40
2018-12-25T02:20:40.769Z,5.53
2018-12-25T02:23:10.250Z,5.97
2018-12-25T02:25:39.453Z,5.40
2018-12-25T02:28:08.617Z,5.50
2018-12-25T02:30:38.050Z,5.13
2018-12-25T02:33:07.252Z,4.87
2018-12-25T02:35:36.447Z,5.07
2018-12-25T02:38:05.854Z,4.70
2018-12-25T02:40:35.023Z,5.10
2018-12-25T02:43:04.213Z,4.80
2018-12-25T02:45:33.372Z,5.50
2018-12-25T02:48:02.567Z,5.20
2018-12-25T02:50:31.731Z,5.00
2018-12-25T02:53:01.057Z,4.47
2018-12-25T02:55:30.354Z,5.37
2018-12-25T02:57:59.527Z,5.67
2018-12-25T03:00:28.713Z,4.60
2018-12-25T03:02:57.899Z,5.37
2018-12-25T03:05:27.072Z,5.07
2018-12-25T03:07:56.231Z,4.80
2018-12-25T03:10:25.414Z,5.60
2018-12-25T03:12:54.583Z,5.10
2018-12-25T03:15:23.755Z,4.80
2018-12-25T03:17:52.933Z,4.87
2018-12-25T03:20:22.110Z,5.13
2018-12-25T03:22:51.283Z,6.13
2018-12-25T03:25:20.442Z,6.00
2018-12-25T03:27:50.600Z,5.37
2018-12-25T03:30:19.765Z,5.43
2018-12-25T03:32:49.041Z,5.20
2018-12-25T03:35:18.575Z,5.47
2018-12-25T03:37:47.746Z,4.70
2018-12-25T03:40:16.933Z,5.80
2018-12-25T03:42:46.091Z,5.50
2018-12-25T03:45:15.565Z,5.57
2018-12-25T03:47:44.739Z,4.87
2018-12-25T03:50:13.906Z,4.80
2018-12-25T03:52:43.091Z,5.40
2018-12-25T03:55:12.242Z,5.07
2018-12-25T03:57:41.419Z,4.67
2018-12-25T04:00:10.615Z,4.50
2018-12-25T04:02:39.764Z,5.27
2018-12-25T04:05:08.943Z,4.87
2018-12-25T04:07:38.124Z,4.83
2018-12-25T04:10:07.288Z,5.57
2018-12-25T04:12:36.459Z,4.67
2018-12-25T04:15:06.367Z,5.27
2018-12-25T04:17:35.525Z,4.80
2018-12-25T04:20:07.837Z,5.50
2018-12-25T04:22:37.036Z,5.10
2018-12-25T04:25:06.198Z,5.10
2018-12-25T04:27:35.381Z,4.67
2018-12-25T04:30:05.225Z,5.83
2018-12-25T04:32:34.405Z,5.70
2018-12-25T04:35:03.759Z,5.33
2018-12-25T04:37:32.910Z,4.50
2018-12-25T04:40:02.071Z,5.17
2018-12-25T04:42:31.303Z,5.00
2018-12-25T04:45:00.468Z,5.03
2018-12-25T04:47:29.659Z,4.90
2018-12-25T04:49:58.840Z,4.40
2018-12-25T04:52:28.035Z,5.67
2018-12-25T04:54:57.192Z,4.40
2018-12-25T04:57:26.377Z,4.87
2018-12-25T04:59:55.553Z,4.77
2018-12-25T05:02:24.731Z,4.50
2018-12-25T05:04:54.151Z,5.50
2018-12-25T05:07:23.330Z,5.60
2018-12-25T05:09:52.492Z,5.80
2018-12-25T05:12:21.655Z,5.00
2018-12-25T05:14:50.855Z,5.87
2018-12-25T05:17:20.003Z,4.80
2018-12-25T05:19:49.171Z,5.73
2018-12-25T05:22:18.344Z,5.90
2018-12-25T05:24:47.503Z,6.40
2018-12-25T05:27:16.663Z,6.33
2018-12-25T05:29:45.852Z,5.80
2018-12-25T05:32:15.014Z,6.70
2018-12-25T05:34:44.190Z,5.87
2018-12-25T05:37:13.371Z,5.30
2018-12-25T05:39:42.626Z,5.60
2018-12-25T05:42:11.783Z,5.30
2018-12-25T05:44:40.955Z,5.57
2018-12-25T05:47:10.148Z,6.13
2018-12-25T05:49:39.299Z,5.33
2018-12-25T05:52:08.480Z,4.90
2018-12-25T05:54:37.655Z,5.37
2018-12-25T05:57:06.839Z,5.33
2018-12-25T05:59:36.019Z,5.87
2018-12-25T06:02:05.188Z,5.77
2018-12-25T06:04:34.376Z,5.00
2018-12-25T06:07:03.547Z,5.37
2018-12-25T06:09:32.712Z,5.87
2018-12-25T06:12:01.885Z,5.10
2018-12-25T06:14:31.071Z,4.47
2018-12-25T06:17:00.239Z,5.80
2018-12-25T06:19:29.717Z,5.43
2018-12-25T06:21:58.904Z,4.93
2018-12-25T06:24:28.059Z,4.47
2018-12-25T06:26:57.256Z,4.43
2018-12-25T06:29:26.430Z,4.97
2018-12-25T06:31:55.596Z,4.77
2018-12-25T06:34:24.765Z,4.57
2018-12-25T06:36:53.941Z,4.97
2018-12-25T06:39:23.111Z,4.20
2018-12-25T06:41:52.279Z,4.47
2018-12-25T06:44:21.452Z,4.90
2018-12-25T06:46:50.607Z,4.77
2018-12-25T06:49:19.771Z,4.70
2018-12-25T06:51:48.948Z,4.90
2018-12-25T06:54:18.132Z,4.10
2018-12-25T06:56:47.298Z,4.83
2018-12-25T06:59:16.461Z,5.30
2018-12-25T07:01:45.631Z,4.87
2018-12-25T07:04:14.798Z,4.97
2018-12-25T07:06:44.902Z,4.20
2018-12-25T07:09:14.050Z,5.30
2018-12-25T07:11:43.225Z,5.30
2018-12-25T07:14:12.383Z,4.60
2018-12-25T07:16:41.576Z,4.33
2018-12-25T07:19:10.724Z,4.10
2018-12-25T07:21:39.915Z,5.00
2018-12-25T07:24:09.419Z,5.00
2018-12-25T07:26:38.582Z,4.93
2018-12-25T07:29:07.757Z,4.80
2018-12-25T07:31:36.933Z,4.90
2018-12-25T07:34:06.090Z,4.80
2018-12-25T07:36:35.274Z,4.97
2018-12-25T07:39:06.380Z,4.67
2018-12-25T07:41:35.555Z,4.50
2018-12-25T07:44:04.735Z,5.33
2018-12-25T07:46:33.900Z,5.60
2018-12-25T07:49:03.060Z,5.03
2018-12-25T07:51:32.241Z,4.83
2018-12-25T07:54:01.407Z,4.70
2018-12-25T07:56:30.721Z,5.67
2018-12-25T07:58:59.979Z,5.47
2018-12-25T08:01:29.221Z,5.60
2018-12-25T08:03:58.398Z,5.73
2018-12-25T08:06:27.572Z,5.73
2018-12-25T08:08:56.740Z,5.03
2018-12-25T08:11:25.924Z,5.17
2018-12-25T08:13:56.056Z,5.77
2018-12-25T08:16:25.243Z,5.33
2018-12-25T08:18:54.392Z,5.37
2018-12-25T08:21:29.175Z,5.43
2018-12-25T08:23:54.466Z,5.23
2018-12-25T08:26:23.661Z,6.23
2018-12-25T08:28:52.816Z,4.93
2018-12-25T08:31:21.988Z,4.70
2018-12-25T08:33:52.156Z,6.07
2018-12-25T08:36:21.339Z,6.60
2018-12-25T08:38:50.498Z,5.57
2018-12-25T08:41:19.678Z,5.30
2018-12-25T08:43:48.930Z,5.33
2018-12-25T08:46:19.258Z,5.70
2018-12-25T08:48:48.410Z,5.63
2018-12-25T08:51:17.651Z,5.50
2018-12-25T08:53:46.843Z,5.60
2018-12-25T08:56:16.023Z,4.90
2018-12-25T08:58:45.189Z,5.63
2018-12-25T09:01:14.373Z,5.50
2018-12-25T09:03:43.530Z,5.60
2018-12-25T09:06:12.711Z,6.00
2018-12-25T09:08:41.869Z,5.80
2018-12-25T09:11:11.042Z,4.87
2018-12-25T09:13:40.198Z,5.60
2018-12-25T09:16:09.379Z,5.33
2018-12-25T09:18:38.587Z,5.40
2018-12-25T09:21:07.735Z,5.37
2018-12-25T09:23:36.906Z,4.90
2018-12-25T09:26:06.071Z,5.37
2018-12-25T09:28:35.234Z,5.67
2018-12-25T09:31:04.401Z,5.53
2018-12-25T09:33:33.571Z,5.23
2018-12-25T09:36:03.035Z,5.90
2018-12-25T09:38:32.211Z,5.40
2018-12-25T09:41:01.740Z,6.50
2018-12-25T09:43:30.988Z,5.63
2018-12-25T09:46:00.143Z,5.83
2018-12-25T09:48:29.316Z,6.20
2018-12-25T09:50:58.488Z,6.13
2018-12-25T09:53:27.659Z,5.57
2018-12-25T09:55:56.836Z,5.50
2018-12-25T09:58:26.339Z,5.90
2018-12-25T10:00:55.511Z,5.57
2018-12-25T10:03:24.712Z,5.63
2018-12-25T10:05:53.874Z,6.47
2018-12-25T10:08:23.063Z,6.00
2018-12-25T10:10:52.214Z,6.27
2018-12-25T10:13:21.404Z,6.20
2018-12-25T10:15:50.577Z,5.67
2018-12-25T10:18:19.743Z,6.10
2018-12-25T10:20:49.878Z,6.07
2018-12-25T10:23:19.043Z,6.37
2018-12-25T10:25:48.197Z,6.90
2018-12-25T10:28:17.435Z,6.50
2018-12-25T10:30:46.601Z,6.17
2018-12-25T10:33:16.735Z,6.77
2018-12-25T10:35:45.899Z,6.70
2018-12-25T10:38:15.093Z,6.73
2018-12-25T10:40:44.392Z,7.90
2018-12-25T10:43:13.611Z,7.20
2018-12-25T10:45:42.795Z,6.17
2018-12-25T10:48:11.979Z,6.60
2018-12-25T10:50:41.894Z,6.77
2018-12-25T10:53:11.146Z,6.40
2018-12-25T10:55:40.327Z,6.67
2018-12-25T10:58:09.503Z,6.43
2018-12-25T11:00:41.419Z,7.47
2018-12-25T11:03:10.585Z,8.00
2018-12-25T11:05:39.758Z,7.17
2018-12-25T11:08:08.922Z,7.73
2018-12-25T11:10:38.094Z,7.97
2018-12-25T11:13:07.248Z,9.10
2018-12-25T11:15:36.471Z,8.80
2018-12-25T11:18:05.636Z,9.43
2018-12-25T11:20:34.819Z,9.87
2018-12-25T11:23:04.047Z,8.97
2018-12-25T11:25:33.232Z,8.13
2018-12-25T11:28:02.395Z,8.43
2018-12-25T11:30:31.563Z,9.10
2018-12-25T11:33:00.746Z,8.80
2018-12-25T11:35:29.928Z,8.03
2018-12-25T11:37:59.086Z,9.30
2018-12-25T11:40:28.250Z,9.40
2018-12-25T11:42:57.429Z,8.77
2018-12-25T11:45:26.615Z,8.50
2018-12-25T11:47:55.799Z,9.07
2018-12-25T11:50:24.963Z,9.00
2018-12-25T11:52:54.131Z,8.70
2018-12-25T11:55:23.309Z,8.73
2018-12-25T11:57:52.540Z,9.60
2018-12-25T12:00:21.750Z,8.27
2018-12-25T12:02:50.923Z,8.63
2018-12-25T12:05:20.098Z,8.63
2018-12-25T12:07:49.260Z,8.80
2018-12-25T12:10:18.527Z,8.90
2018-12-25T12:12:47.746Z,8.80
2018-12-25T12:15:16.906Z,8.50
2018-12-25T12:17:46.083Z,9.17
2018-12-25T12:20:15.251Z,9.90
2018-12-25T12:22:44.439Z,9.33
2018-12-25T12:25:13.919Z,9.77
2018-12-25T12:27:43.131Z,9.80
2018-12-25T12:30:12.294Z,9.53
2018-12-25T12:32:41.454Z,9.37
2018-12-25T12:35:10.635Z,9.43
2018-12-25T12:37:39.807Z,10.00
2018-12-25T12:40:08.981Z,9.33
2018-12-25T12:42:38.138Z,9.90
2018-12-25T12:45:07.882Z,9.43
2018-12-25T12:47:37.082Z,9.90
2018-12-25T12:50:08.486Z,10.50
2018-12-25T12:52:45.502Z,10.13
2018-12-25T12:55:09.631Z,10.20
2018-12-25T12:57:38.810Z,10.67
2018-12-25T13:00:08.399Z,10.47
2018-12-25T13:02:37.587Z,8.70
2018-12-25T13:05:07.319Z,9.23
2018-12-25T13:07:36.503Z,10.03
2018-12-25T13:10:06.618Z,9.40
2018-12-25T13:12:35.791Z,8.77
2018-12-25T13:15:06.206Z,10.00
2018-12-25T13:17:35.409Z,9.83
2018-12-25T13:20:06.050Z,9.30
2018-12-25T13:22:35.236Z,8.93
2018-12-25T13:25:04.386Z,10.30
2018-12-25T13:27:33.591Z,9.10
2018-12-25T13:30:02.768Z,10.40
2018-12-25T13:32:31.944Z,9.90
2018-12-25T13:35:01.342Z,10.23
2018-12-25T13:37:30.518Z,10.33
2018-12-25T13:39:59.710Z,10.70
2018-12-25T13:42:28.936Z,9.60
2018-12-25T13:44:58.103Z,9.47
2018-12-25T13:47:27.277Z,10.20
2018-12-25T13:49:57.370Z,9.60
2018-12-25T13:52:26.558Z,9.43
2018-12-25T13:54:55.720Z,10.10
2018-12-25T13:57:24.902Z,8.23
2018-12-25T13:59:54.059Z,9.37
2018-12-25T14:02:23.248Z,8.70
2018-12-25T14:04:52.422Z,9.27
2018-12-25T14:07:21.599Z,8.90
2018-12-25T14:09:50.791Z,9.73
2018-12-25T14:12:19.958Z,9.30
2018-12-25T14:14:49.134Z,8.10
2018-12-25T14:17:18.310Z,8.70
2018-12-25T14:19:47.513Z,8.07
2018-12-25T14:22:16.686Z,7.30
2018-12-25T14:24:45.854Z,7.30
2018-12-25T14:27:15.026Z,8.03
2018-12-25T14:29:44.440Z,6.80
2018-12-25T14:32:13.623Z,7.00
2018-12-25T14:34:42.775Z,6.90
2018-12-25T14:37:12.242Z,6.97
2018-12-25T14:39:41.439Z,6.70
2018-12-25T14:42:10.587Z,7.77
2018-12-25T14:44:39.779Z,6.93
2018-12-25T14:47:08.965Z,7.13
2018-12-25T14:49:38.131Z,7.53
2018-12-25T14:52:07.293Z,7.13
2018-12-25T14:54:36.458Z,7.70
2018-12-25T14:57:05.633Z,8.50
2018-12-25T14:59:34.810Z,8.00
2018-12-25T15:02:03.973Z,8.40
2018-12-25T15:04:33.161Z,7.87
2018-12-25T15:07:02.311Z,7.30
2018-12-25T15:09:31.501Z,7.37
2018-12-25T15:12:00.652Z,7.17
2018-12-25T15:14:29.870Z,8.30
2018-12-25T15:16:59.031Z,8.87
2018-12-25T15:19:28.231Z,9.63
2018-12-25T15:21:57.418Z,9.90
2018-12-25T15:24:26.584Z,9.70
2018-12-25T15:26:55.754Z,9.10
2018-12-25T15:29:24.949Z,9.60
2018-12-25T15:31:54.136Z,8.50
2018-12-25T15:34:23.286Z,9.00
2018-12-25T15:36:52.471Z,9.80
2018-12-25T15:39:21.635Z,9.30
2018-12-25T15:41:50.820Z,9.83
2018-12-25T15:44:20.226Z,10.23
2018-12-25T15:46:49.403Z,9.13
2018-12-25T15:49:18.586Z,10.10
2018-12-25T15:51:47.774Z,8.77
2018-12-25T15:54:16.922Z,9.40
2018-12-25T15:56:46.070Z,9.13
2018-12-25T15:59:15.245Z,8.90
2018-12-25T16:01:44.415Z,8.80
2018-12-25T16:04:13.586Z,9.00
2018-12-25T16:06:42.758Z,8.93
2018-12-25T16:09:11.917Z,8.73
2018-12-25T16:11:41.090Z,9.40
2018-12-25T16:14:10.338Z,9.33
2018-12-25T16:16:39.526Z,9.67
2018-12-25T16:19:08.684Z,8.87
2018-12-25T16:21:37.862Z,9.30
2018-12-25T16:24:07.014Z,8.97
2018-12-25T16:26:36.194Z,9.33
2018-12-25T16:29:05.359Z,8.37
2018-12-25T16:31:34.518Z,8.63
2018-12-25T16:34:03.715Z,10.37
2018-12-25T16:36:33.201Z,8.43
2018-12-25T16:39:02.359Z,8.10
2018-12-25T16:41:32.923Z,9.30
2018-12-25T16:44:02.176Z,9.47
2018-12-25T16:46:31.335Z,8.50
2018-12-25T16:49:00.515Z,8.57
2018-12-25T16:51:29.662Z,8.50
2018-12-25T16:53:58.836Z,8.30
2018-12-25T16:56:28.015Z,8.60
2018-12-25T16:58:57.178Z,10.30
2018-12-25T17:01:27.203Z,9.03
2018-12-25T17:03:56.359Z,9.63
2018-12-25T17:06:25.549Z,9.10
2018-12-25T17:08:54.758Z,8.47
2018-12-25T17:11:23.895Z,7.93
2018-12-25T17:13:53.051Z,8.13
2018-12-25T17:16:22.239Z,8.23
2018-12-25T17:18:51.420Z,7.47
2018-12-25T17:21:20.624Z,7.87
2018-12-25T17:23:49.799Z,8.50
2018-12-25T17:26:18.975Z,8.00
2018-12-25T17:28:48.150Z,8.93
2018-12-25T17:31:17.409Z,8.23
2018-12-25T17:33:46.711Z,8.73
2018-12-25T17:36:15.926Z,8.37
2018-12-25T17:38:45.109Z,9.10
2018-12-25T17:41:14.275Z,8.60
2018-12-25T17:43:43.431Z,8.20
2018-12-25T17:46:12.620Z,9.30
2018-12-25T17:48:41.782Z,9.20
2018-12-25T17:51:10.956Z,9.80
2018-12-25T17:53:40.175Z,9.87
2018-12-25T17:56:09.371Z,10.17
2018-12-25T17:58:38.558Z,9.40
2018-12-25T18:01:08.047Z,10.13
2018-12-25T18:03:37.225Z,9.83
2018-12-25T18:06:06.394Z,9.70
2018-12-25T18:08:35.643Z,9.83
2018-12-25T18:11:05.144Z,10.10
2018-12-25T18:13:34.307Z,8.70
2018-12-25T18:16:03.500Z,9.60
2018-12-25T18:18:32.674Z,9.40
2018-12-25T18:21:01.863Z,11.70
2018-12-25T18:23:31.027Z,10.97
2018-12-25T18:26:00.217Z,10.47
2018-12-25T18:28:29.380Z,11.40
2018-12-25T18:30:58.837Z,12.20
2018-12-25T18:33:28.112Z,11.63
2018-12-25T18:35:57.287Z,12.30
2018-12-25T18:38:26.755Z,12.40
2018-12-25T18:40:55.947Z,11.80
2018-12-25T18:43:25.355Z,11.90
2018-12-25T18:45:54.555Z,12.17
2018-12-25T18:48:23.737Z,12.10
2018-12-25T18:50:53.089Z,11.50
2018-12-25T18:53:22.246Z,12.33
2018-12-25T18:55:51.435Z,11.60
2018-12-25T18:58:20.859Z,11.40
2018-12-25T19:00:50.033Z,12.50
2018-12-25T19:03:19.198Z,13.70
2018-12-25T19:05:48.385Z,11.37
2018-12-25T19:08:17.586Z,12.40
2018-12-25T19:10:47.065Z,12.73
2018-12-25T19:13:16.267Z,12.87
2018-12-25T19:15:45.962Z,11.47
2018-12-25T19:18:15.158Z,12.77
2018-12-25T19:20:44.331Z,16.97
2018-12-25T19:23:14.481Z,16.37
2018-12-25T19:25:43.646Z,15.20
2018-12-25T19:28:12.976Z,15.10
2018-12-25T19:30:42.158Z,15.33
2018-12-25T19:33:11.330Z,15.70
2018-12-25T19:35:40.508Z,18.93
2018-12-25T19:38:10.842Z,18.57
2018-12-25T19:40:40.032Z,17.27
2018-12-25T19:43:09.215Z,16.30
2018-12-25T19:45:38.546Z,16.13
2018-12-25T19:48:07.731Z,15.70
2018-12-25T19:50:36.916Z,14.33
2018-12-25T19:53:06.099Z,13.10
2018-12-25T19:55:35.293Z,11.80
2018-12-25T19:58:04.467Z,12.20
2018-12-25T20:00:33.675Z,11.97
2018-12-25T20:03:03.884Z,12.03
2018-12-25T20:05:53.915Z,12.57
2018-12-25T20:08:54.876Z,12.63
2018-12-25T20:11:43.711Z,15.00
2018-12-25T20:14:21.487Z,15.67
2018-12-25T20:16:53.909Z,15.10
2018-12-25T20:19:28.922Z,13.70
2018-12-25T20:22:13.066Z,13.63
2018-12-25T20:25:12.633Z,14.27
2018-12-25T20:27:47.811Z,13.77
2018-12-25T20:30:44.489Z,13.10
2018-12-25T20:33:31.823Z,13.57
2018-12-25T20:36:24.414Z,12.73
2018-12-25T20:39:14.592Z,13.40
2018-12-25T20:42:01.743Z,16.00
2018-12-25T20:44:56.530Z,13.47
2018-12-25T20:47:37.621Z,14.33
2018-12-25T20:50:27.432Z,13.30
2018-12-25T20:53:22.238Z,12.83
2018-12-25T20:56:11.257Z,13.90
2018-12-25T20:58:43.613Z,12.03
2018-12-25T21:01:39.532Z,13.77
2018-12-25T21:04:17.415Z,13.47
2018-12-25T21:07:04.857Z,14.07
2018-12-25T21:10:10.431Z,13.50
2018-12-25T21:13:00.995Z,12.87
2018-12-25T21:16:06.718Z,14.63
2018-12-25T21:18:41.927Z,13.73
2018-12-25T21:21:32.353Z,14.07
2018-12-25T21:24:37.994Z,12.83
2018-12-25T21:27:31.999Z,14.13
2018-12-25T21:30:02.212Z,14.53
2018-12-25T21:32:32.627Z,13.80
2018-12-25T21:35:12.351Z,14.83
2018-12-25T21:37:41.627Z,15.57
2018-12-25T21:40:10.862Z,13.03
2018-12-25T21:42:40.048Z,15.27
2018-12-25T21:45:10.203Z,13.90
2018-12-25T21:47:41.265Z,14.33
2018-12-25T21:50:10.807Z,16.20
2018-12-25T21:52:39.989Z,15.50
2018-12-25T21:55:18.314Z,13.73
2018-12-25T21:57:40.874Z,14.93
2018-12-25T22:00:12.176Z,14.50
2018-12-25T22:02:41.593Z,13.63
2018-12-25T22:05:11.124Z,13.70
2018-12-25T22:07:40.324Z,14.87
2018-12-25T22:10:09.632Z,14.53
2018-12-25T22:12:38.798Z,14.70
2018-12-25T22:15:08.332Z,14.50
2018-12-25T22:17:37.543Z,15.57
2018-12-25T22:20:14.957Z,15.90
2018-12-25T22:22:44.390Z,14.77
2018-12-25T22:25:13.567Z,14.37
2018-12-25T22:27:43.204Z,13.83
2018-12-25T22:30:12.393Z,15.20
2018-12-25T22:32:41.924Z,14.03
2018-12-25T22:35:11.096Z,14.70
2018-12-25T22:37:40.278Z,14.47
2018-12-25T22:40:10.427Z,14.10
2018-12-25T22:42:39.933Z,17.03
2018-12-25T22:45:09.118Z,15.63
2018-12-25T22:47:38.640Z,14.00
2018-12-25T22:50:07.815Z,14.07
2018-12-25T22:52:36.988Z,14.60
2018-12-25T22:55:08.283Z,12.30
2018-12-25T22:57:37.799Z,12.57
2018-12-25T23:00:09.946Z,11.50
2018-12-25T23:02:39.188Z,11.60
2018-12-25T23:05:08.386Z,12.70
2018-12-25T23:07:37.571Z,11.40
2018-12-25T23:10:07.017Z,10.43
2018-12-25T23:12:36.194Z,11.27
2018-12-25T23:15:06.107Z,12.70
2018-12-25T23:17:35.279Z,12.30
2018-12-25T23:20:04.987Z,11.47
2018-12-25T23:22:34.175Z,12.00
2018-12-25T23:25:03.415Z,10.40
2018-12-25T23:27:32.607Z,10.73
2018-12-25T23:30:01.850Z,11.97
2018-12-25T23:32:32.101Z,9.67
2018-12-25T23:35:01.310Z,10.87
2018-12-25T23:37:30.538Z,11.07
2018-12-25T23:39:59.705Z,10.40
2018-12-25T23:42:28.870Z,11.27
2018-12-25T23:44:58.069Z,10.30
2018-12-25T23:47:27.234Z,11.40
2018-12-25T23:49:56.418Z,10.20
2018-12-25T23:52:25.599Z,9.30
2018-12-25T23:54:55.856Z,9.73
2018-12-25T23:57:25.022Z,10.27
2018-12-25T23:59:54.208Z,10.53
